EST,Max TemperatureF,Mean TemperatureF,Min TemperatureF,Max Dew PointF,MeanDew PointF,Min DewpointF,Max Humidity, Mean Humidity, Min Humidity, Max Sea Level PressureIn, Mean Sea Level PressureIn, Min Sea Level PressureIn, Max VisibilityMiles, Mean VisibilityMiles, Min VisibilityMiles, Max Wind SpeedMPH, Mean Wind SpeedMPH, Max Gust SpeedMPH,PrecipitationIn, CloudCover, Events, WindDirDegrees
2013-11-1,51,46,42,50,42,37,100,83,62,29.73,29.58,29.34,10,9,4,23,14,33,0.00,8,Rain,253
2013-11-2,48,44,41,43,41,36,100,90,76,30.10,29.88,29.72,10,8,3,13,9,22,0.00,8,Rain,283
2013-11-3,48,42,35,37,36,34,100,81,62,30.36,30.27,30.10,10,10,10,12,6,16,0.00,6,,106
2013-11-4,53,44,35,41,35,32,93,71,51,30.37,30.31,30.24,10,10,10,14,8,24,0.00,1,,143
2013-11-5,55,52,48,46,43,41,82,72,62,30.35,30.27,30.13,10,10,10,8,5,,0.00,7,,176
2013-11-6,55,48,41,52,46,36,100,85,58,30.11,29.98,29.87,10,8,2,20,9,30,0.00,8,Rain,228
2013-11-7,44,37,30,36,31,25,93,75,46,30.24,30.18,30.09,10,10,10,18,10,24,0.00,3,,277
2013-11-8,46,37,28,32,30,27,100,76,53,30.34,30.25,30.14,10,9,4,9,6,,0.00,1,,239
2013-11-9,59,50,42,39,34,28,71,57,45,30.13,29.98,29.90,10,10,5,25,12,33,0.00,2,,239
2013-11-10,46,38,30,36,30,27,93,73,57,30.32,30.23,30.04,10,10,7,24,13,37,0.00,4,,282
2013-11-11,46,38,28,39,31,21,100,76,57,30.37,30.19,30.08,10,9,2,15,7,22,0.00,8,Rain-Snow,282
2013-11-12,33,27,21,27,21,18,86,77,69,30.60,30.55,30.38,10,10,7,14,7,21,0.00,2,Snow,314
2013-11-13,35,27,19,19,18,16,93,68,44,30.58,30.46,30.26,10,10,10,14,8,21,0.00,0,,235
2013-11-14,51,40,30,23,21,19,69,49,28,30.25,30.13,30.02,10,10,10,14,9,24,0.00,0,,221
2013-11-15,51,46,41,32,27,23,70,51,41,30.07,30.04,30.00,10,10,10,12,7,,0.00,3,,211
2013-11-16,57,48,39,55,45,32,100,85,70,30.04,29.93,29.75,10,9,5,15,7,24,0.00,6,Rain,167
2013-11-17,62,53,44,59,52,37,100,86,67,29.74,29.58,29.32,10,9,2,32,12,47,0.05,8,Rain,205
2013-11-18,44,38,33,36,32,27,93,77,65,30.19,29.95,29.70,10,10,10,24,16,34,0.00,5,,287
2013-11-19,41,36,30,28,27,25,87,73,57,30.35,30.31,30.20,10,10,3,12,6,,0.00,4,,18
2013-11-20,42,35,28,32,28,23,86,74,57,30.36,30.27,30.17,10,10,10,13,6,18,0.00,2,Rain,127
2013-11-21,46,44,41,46,40,32,100,88,66,30.26,30.20,30.17,10,7,2,8,4,,0.47,8,Rain,169
2013-11-22,46,37,28,46,37,27,100,92,70,30.42,30.29,30.16,10,7,1,16,7,26,0.02,7,Rain,314
2013-11-23,30,24,19,27,19,12,93,78,55,30.59,30.45,30.36,10,10,5,22,9,30,0.00,4,Snow,307
2013-11-24,26,19,12,18,12,5,93,74,50,30.66,30.57,30.46,10,9,2,14,4,,0.00,5,Snow,269
2013-11-25,32,26,19,27,16,9,86,64,51,30.44,30.24,30.13,10,10,5,15,7,20,0.00,5,Snow,218
2013-11-26,33,30,26,28,26,23,93,83,75,30.13,30.04,29.97,10,10,4,15,6,21,0.00,7,Rain-Snow,264
2013-11-27,26,24,23,23,20,16,86,81,69,30.24,30.10,29.99,10,7,2,15,8,21,0.00,8,Snow,309
2013-11-28,32,28,23,21,16,12,80,65,55,30.43,30.29,30.21,10,10,10,10,5,17,0.00,7,,233
2013-11-29,35,30,24,21,20,18,80,68,52,30.62,30.54,30.44,10,10,10,7,3,,0.00,3,,163
2013-11-30,48,39,30,30,26,21,75,66,46,30.48,30.27,30.10,10,10,10,10,5,22,0.00,1,,186